sensor_id;sensor_type;location;lat;lon;timestamp;P1;durP1;ratioP1;P2;durP2;ratioP2
50689;SDS011;54375;48.298;11.238;2023-06-10T00:02:30;16.80;;;12.80;;
50689;SDS011;54375;48.298;11.238;2023-06-10T00:17:33;15.80;;;11.75;;
50689;SDS011;54375;48.298;11.238;2023-06-10T00:32:36;14.70;;;10.93;;
50689;SDS011;54375;48.298;11.238;2023-06-10T00:47:38;13.20;;;10.90;;
50689;SDS011;54375;48.298;11.238;2023-06-10T01:02:41;13.25;;;11.45;;
50689;SDS011;54375;48.298;11.238;2023-06-10T01:17:57;13.93;;;11.35;;
50689;SDS011;54375;48.298;11.238;2023-06-10T01:33:00;13.73;;;10.88;;
50689;SDS011;54375;48.298;11.238;2023-06-10T01:48:05;12.30;;;10.38;;
50689;SDS011;54375;48.298;11.238;2023-06-10T02:03:07;12.98;;;10.80;;
50689;SDS011;54375;48.298;11.238;2023-06-10T02:18:10;16.63;;;12.52;;
50689;SDS011;54375;48.298;11.238;2023-06-10T02:33:12;15.15;;;11.65;;
50689;SDS011;54375;48.298;11.238;2023-06-10T02:48:15;14.70;;;10.80;;
50689;SDS011;54375;48.298;11.238;2023-06-10T03:03:18;12.73;;;10.98;;
50689;SDS011;54375;48.298;11.238;2023-06-10T03:18:21;12.80;;;10.35;;
50689;SDS011;54375;48.298;11.238;2023-06-10T03:33:23;18.58;;;12.93;;
50689;SDS011;54375;48.298;11.238;2023-06-10T03:48:25;17.23;;;12.18;;
50689;SDS011;54375;48.298;11.238;2023-06-10T04:03:28;15.38;;;12.07;;
50689;SDS011;54375;48.298;11.238;2023-06-10T04:18:30;17.83;;;12.25;;
50689;SDS011;54375;48.298;11.238;2023-06-10T04:33:33;17.90;;;13.38;;
50689;SDS011;54375;48.298;11.238;2023-06-10T04:48:35;19.02;;;14.27;;
50689;SDS011;54375;48.298;11.238;2023-06-10T05:03:37;17.88;;;12.85;;
50689;SDS011;54375;48.298;11.238;2023-06-10T05:18:40;16.45;;;12.43;;
50689;SDS011;54375;48.298;11.238;2023-06-10T05:33:42;17.60;;;12.73;;
50689;SDS011;54375;48.298;11.238;2023-06-10T05:48:44;14.13;;;11.23;;
50689;SDS011;54375;48.298;11.238;2023-06-10T06:03:46;15.60;;;10.77;;
50689;SDS011;54375;48.298;11.238;2023-06-10T06:18:48;14.23;;;11.20;;
50689;SDS011;54375;48.298;11.238;2023-06-10T06:33:50;12.57;;;9.05;;
50689;SDS011;54375;48.298;11.238;2023-06-10T06:48:53;10.85;;;8.40;;
50689;SDS011;54375;48.298;11.238;2023-06-10T07:03:55;10.73;;;8.05;;
50689;SDS011;54375;48.298;11.238;2023-06-10T07:18:58;10.57;;;7.45;;
50689;SDS011;54375;48.298;11.238;2023-06-10T07:34:00;8.98;;;7.50;;
50689;SDS011;54375;48.298;11.238;2023-06-10T07:49:02;8.65;;;6.82;;
50689;SDS011;54375;48.298;11.238;2023-06-10T08:04:05;7.25;;;5.70;;
50689;SDS011;54375;48.298;11.238;2023-06-10T08:19:07;8.32;;;5.10;;
50689;SDS011;54375;48.298;11.238;2023-06-10T08:34:09;5.83;;;5.03;;
50689;SDS011;54375;48.298;11.238;2023-06-10T08:49:14;7.43;;;4.90;;
50689;SDS011;54375;48.298;11.238;2023-06-10T09:04:19;7.17;;;5.37;;
50689;SDS011;54375;48.298;11.238;2023-06-10T09:19:22;7.23;;;5.73;;
50689;SDS011;54375;48.298;11.238;2023-06-10T09:34:25;6.37;;;5.37;;
50689;SDS011;54375;48.298;11.238;2023-06-10T09:49:29;7.40;;;5.23;;
50689;SDS011;54375;48.298;11.238;2023-06-10T10:04:32;7.10;;;4.30;;
50689;SDS011;54375;48.298;11.238;2023-06-10T10:19:40;6.90;;;4.23;;
50689;SDS011;54375;48.298;11.238;2023-06-10T10:34:49;6.03;;;4.63;;
50689;SDS011;54375;48.298;11.238;2023-06-10T10:49:57;7.33;;;5.27;;
50689;SDS011;54375;48.298;11.238;2023-06-10T11:04:59;6.97;;;4.93;;
50689;SDS011;54375;48.298;11.238;2023-06-10T11:20:02;6.43;;;5.13;;
50689;SDS011;54375;48.298;11.238;2023-06-10T11:35:06;6.37;;;4.47;;
50689;SDS011;54375;48.298;11.238;2023-06-10T11:50:09;4.67;;;3.73;;
50689;SDS011;54375;48.298;11.238;2023-06-10T12:05:12;6.87;;;4.73;;
50689;SDS011;54375;48.298;11.238;2023-06-10T12:20:25;6.33;;;4.60;;
50689;SDS011;54375;48.298;11.238;2023-06-10T12:35:29;7.23;;;5.50;;
50689;SDS011;54375;48.298;11.238;2023-06-10T12:50:31;7.80;;;4.90;;
50689;SDS011;54375;48.298;11.238;2023-06-10T13:05:34;5.10;;;4.27;;
50689;SDS011;54375;48.298;11.238;2023-06-10T13:20:37;8.70;;;4.90;;
50689;SDS011;54375;48.298;11.238;2023-06-10T13:35:40;6.03;;;4.90;;
50689;SDS011;54375;48.298;11.238;2023-06-10T13:50:42;4.73;;;3.60;;
50689;SDS011;54375;48.298;11.238;2023-06-10T14:05:45;5.37;;;4.07;;
50689;SDS011;54375;48.298;11.238;2023-06-10T14:20:47;6.77;;;3.93;;
50689;SDS011;54375;48.298;11.238;2023-06-10T14:35:50;5.33;;;3.80;;
50689;SDS011;54375;48.298;11.238;2023-06-10T14:50:52;4.83;;;3.33;;
50689;SDS011;54375;48.298;11.238;2023-06-10T15:05:54;5.07;;;3.40;;
50689;SDS011;54375;48.298;11.238;2023-06-10T15:20:56;8.50;;;3.50;;
50689;SDS011;54375;48.298;11.238;2023-06-10T15:36:00;3.37;;;2.47;;
50689;SDS011;54375;48.298;11.238;2023-06-10T15:51:02;5.20;;;2.93;;
50689;SDS011;54375;48.298;11.238;2023-06-10T16:06:05;4.50;;;3.30;;
50689;SDS011;54375;48.298;11.238;2023-06-10T16:21:07;5.67;;;3.60;;
50689;SDS011;54375;48.298;11.238;2023-06-10T16:36:10;5.03;;;3.50;;
50689;SDS011;54375;48.298;11.238;2023-06-10T16:51:12;4.50;;;3.20;;
50689;SDS011;54375;48.298;11.238;2023-06-10T17:06:14;4.83;;;2.87;;
50689;SDS011;54375;48.298;11.238;2023-06-10T17:21:16;9.53;;;3.20;;
50689;SDS011;54375;48.298;11.238;2023-06-10T17:36:19;5.00;;;3.30;;
50689;SDS011;54375;48.298;11.238;2023-06-10T17:51:21;5.27;;;3.80;;
50689;SDS011;54375;48.298;11.238;2023-06-10T18:06:24;6.28;;;4.60;;
50689;SDS011;54375;48.298;11.238;2023-06-10T18:21:26;6.55;;;4.82;;
50689;SDS011;54375;48.298;11.238;2023-06-10T18:36:28;6.95;;;5.55;;
50689;SDS011;54375;48.298;11.238;2023-06-10T18:51:31;6.03;;;4.88;;
50689;SDS011;54375;48.298;11.238;2023-06-10T19:06:34;8.10;;;6.03;;
50689;SDS011;54375;48.298;11.238;2023-06-10T19:21:36;7.78;;;5.20;;
50689;SDS011;54375;48.298;11.238;2023-06-10T19:36:39;6.78;;;5.72;;
50689;SDS011;54375;48.298;11.238;2023-06-10T19:51:41;7.78;;;5.80;;
50689;SDS011;54375;48.298;11.238;2023-06-10T20:06:44;7.57;;;6.45;;
50689;SDS011;54375;48.298;11.238;2023-06-10T20:21:46;7.68;;;6.65;;
50689;SDS011;54375;48.298;11.238;2023-06-10T20:36:49;11.70;;;7.38;;
50689;SDS011;54375;48.298;11.238;2023-06-10T20:51:51;10.50;;;7.60;;
50689;SDS011;54375;48.298;11.238;2023-06-10T21:06:53;11.27;;;8.60;;
50689;SDS011;54375;48.298;11.238;2023-06-10T21:21:56;10.50;;;8.32;;
50689;SDS011;54375;48.298;11.238;2023-06-10T21:36:58;9.73;;;8.02;;
50689;SDS011;54375;48.298;11.238;2023-06-10T21:52:01;12.15;;;8.90;;
50689;SDS011;54375;48.298;11.238;2023-06-10T22:07:03;11.48;;;9.25;;
50689;SDS011;54375;48.298;11.238;2023-06-10T22:22:06;12.18;;;8.77;;
50689;SDS011;54375;48.298;11.238;2023-06-10T22:37:08;8.63;;;6.97;;
50689;SDS011;54375;48.298;11.238;2023-06-10T22:52:10;10.75;;;6.45;;
50689;SDS011;54375;48.298;11.238;2023-06-10T23:07:13;11.15;;;7.47;;
50689;SDS011;54375;48.298;11.238;2023-06-10T23:22:15;10.20;;;7.78;;
50689;SDS011;54375;48.298;11.238;2023-06-10T23:37:18;10.73;;;7.70;;
50689;SDS011;54375;48.298;11.238;2023-06-10T23:52:20;10.70;;;8.43;;
